sensor_id;sensor_type;location;lat;lon;timestamp;P1;durP1;ratioP1;P2;durP2;ratioP2
30593;SDS011;33199;47.590;8.300;2023-03-16T00:00:42;1.38;;;1.20;;
30593;SDS011;33199;47.590;8.300;2023-03-16T00:03:08;1.13;;;1.10;;
30593;SDS011;33199;47.590;8.300;2023-03-16T00:05:34;0.93;;;0.90;;
30593;SDS011;33199;47.590;8.300;2023-03-16T00:08:01;3.53;;;1.30;;
30593;SDS011;33199;47.590;8.300;2023-03-16T00:10:27;1.85;;;1.42;;
30593;SDS011;33199;47.590;8.300;2023-03-16T00:12:53;1.55;;;1.25;;
30593;SDS011;33199;47.590;8.300;2023-03-16T00:15:19;1.48;;;1.20;;
30593;SDS011;33199;47.590;8.300;2023-03-16T00:17:45;2.15;;;1.50;;
30593;SDS011;33199;47.590;8.300;2023-03-16T00:20:12;1.50;;;1.38;;
30593;SDS011;33199;47.590;8.300;2023-03-16T00:22:39;1.48;;;1.38;;
30593;SDS011;33199;47.590;8.300;2023-03-16T00:25:06;1.50;;;1.10;;
30593;SDS011;33199;47.590;8.300;2023-03-16T00:27:33;1.42;;;1.33;;
30593;SDS011;33199;47.590;8.300;2023-03-16T00:29:59;1.30;;;1.20;;
30593;SDS011;33199;47.590;8.300;2023-03-16T00:32:28;1.58;;;1.15;;
30593;SDS011;33199;47.590;8.300;2023-03-16T00:34:58;1.48;;;1.30;;
30593;SDS011;33199;47.590;8.300;2023-03-16T00:37:26;1.70;;;1.58;;
30593;SDS011;33199;47.590;8.300;2023-03-16T00:39:53;1.65;;;1.33;;
30593;SDS011;33199;47.590;8.300;2023-03-16T00:42:23;1.35;;;1.25;;
30593;SDS011;33199;47.590;8.300;2023-03-16T00:44:51;2.28;;;1.25;;
30593;SDS011;33199;47.590;8.300;2023-03-16T00:47:21;1.33;;;1.23;;
30593;SDS011;33199;47.590;8.300;2023-03-16T00:49:48;1.45;;;1.20;;
30593;SDS011;33199;47.590;8.300;2023-03-16T00:52:14;1.27;;;1.10;;
30593;SDS011;33199;47.590;8.300;2023-03-16T00:54:43;1.10;;;1.10;;
30593;SDS011;33199;47.590;8.300;2023-03-16T00:57:11;1.33;;;1.10;;
30593;SDS011;33199;47.590;8.300;2023-03-16T00:59:38;0.95;;;0.95;;
30593;SDS011;33199;47.590;8.300;2023-03-16T01:02:05;1.17;;;1.10;;
30593;SDS011;33199;47.590;8.300;2023-03-16T01:04:32;1.00;;;1.00;;
30593;SDS011;33199;47.590;8.300;2023-03-16T01:07:01;1.20;;;1.10;;
30593;SDS011;33199;47.590;8.300;2023-03-16T01:09:30;0.98;;;0.98;;
30593;SDS011;33199;47.590;8.300;2023-03-16T01:12:01;1.20;;;1.10;;
30593;SDS011;33199;47.590;8.300;2023-03-16T01:14:32;1.33;;;1.23;;
30593;SDS011;33199;47.590;8.300;2023-03-16T01:17:02;1.08;;;1.08;;
30593;SDS011;33199;47.590;8.300;2023-03-16T01:19:28;1.30;;;1.20;;
30593;SDS011;33199;47.590;8.300;2023-03-16T01:21:54;1.00;;;1.00;;
30593;SDS011;33199;47.590;8.300;2023-03-16T01:24:21;1.05;;;1.05;;
30593;SDS011;33199;47.590;8.300;2023-03-16T01:26:48;1.02;;;0.93;;
30593;SDS011;33199;47.590;8.300;2023-03-16T01:29:13;1.75;;;1.17;;
30593;SDS011;33199;47.590;8.300;2023-03-16T01:31:39;1.42;;;1.30;;
30593;SDS011;33199;47.590;8.300;2023-03-16T01:34:06;2.03;;;1.10;;
30593;SDS011;33199;47.590;8.300;2023-03-16T01:36:40;1.15;;;1.05;;
30593;SDS011;33199;47.590;8.300;2023-03-16T01:39:06;2.00;;;0.95;;
30593;SDS011;33199;47.590;8.300;2023-03-16T01:41:32;1.25;;;1.15;;
30593;SDS011;33199;47.590;8.300;2023-03-16T01:43:59;1.65;;;1.40;;
30593;SDS011;33199;47.590;8.300;2023-03-16T01:46:25;0.90;;;0.90;;
30593;SDS011;33199;47.590;8.300;2023-03-16T01:51:32;1.40;;;1.20;;
30593;SDS011;33199;47.590;8.300;2023-03-16T01:54:10;1.40;;;1.00;;
30593;SDS011;33199;47.590;8.300;2023-03-16T01:56:47;1.00;;;1.00;;
30593;SDS011;33199;47.590;8.300;2023-03-16T01:59:25;1.70;;;1.08;;
30593;SDS011;33199;47.590;8.300;2023-03-16T02:01:55;2.70;;;1.15;;
30593;SDS011;33199;47.590;8.300;2023-03-16T02:04:35;1.15;;;1.08;;
30593;SDS011;33199;47.590;8.300;2023-03-16T02:07:06;0.88;;;0.88;;
30593;SDS011;33199;47.590;8.300;2023-03-16T02:09:33;1.35;;;1.25;;
30593;SDS011;33199;47.590;8.300;2023-03-16T02:12:03;1.65;;;1.13;;
30593;SDS011;33199;47.590;8.300;2023-03-16T02:14:30;1.27;;;1.13;;
30593;SDS011;33199;47.590;8.300;2023-03-16T02:16:56;4.32;;;1.20;;
30593;SDS011;33199;47.590;8.300;2023-03-16T02:19:42;1.02;;;1.02;;
30593;SDS011;33199;47.590;8.300;2023-03-16T02:22:25;1.17;;;1.08;;
30593;SDS011;33199;47.590;8.300;2023-03-16T02:24:52;0.90;;;0.90;;
30593;SDS011;33199;47.590;8.300;2023-03-16T02:27:41;1.02;;;1.02;;
30593;SDS011;33199;47.590;8.300;2023-03-16T02:30:13;1.17;;;1.08;;
30593;SDS011;33199;47.590;8.300;2023-03-16T02:32:40;1.58;;;1.20;;
30593;SDS011;33199;47.590;8.300;2023-03-16T02:35:06;1.52;;;1.30;;
30593;SDS011;33199;47.590;8.300;2023-03-16T02:37:36;1.17;;;1.08;;
30593;SDS011;33199;47.590;8.300;2023-03-16T02:40:20;1.20;;;1.10;;
30593;SDS011;33199;47.590;8.300;2023-03-16T02:45:22;1.50;;;1.40;;
30593;SDS011;33199;47.590;8.300;2023-03-16T02:47:53;1.50;;;1.30;;
30593;SDS011;33199;47.590;8.300;2023-03-16T02:50:19;1.58;;;1.27;;
30593;SDS011;33199;47.590;8.300;2023-03-16T02:52:46;1.58;;;1.20;;
30593;SDS011;33199;47.590;8.300;2023-03-16T02:55:12;1.50;;;1.38;;
30593;SDS011;33199;47.590;8.300;2023-03-16T02:57:38;1.52;;;1.20;;
30593;SDS011;33199;47.590;8.300;2023-03-16T03:00:04;1.10;;;1.00;;
30593;SDS011;33199;47.590;8.300;2023-03-16T03:02:36;1.65;;;1.20;;
30593;SDS011;33199;47.590;8.300;2023-03-16T03:05:01;1.27;;;1.17;;
30593;SDS011;33199;47.590;8.300;2023-03-16T03:07:27;2.67;;;1.30;;
30593;SDS011;33199;47.590;8.300;2023-03-16T03:09:56;1.50;;;1.40;;
30593;SDS011;33199;47.590;8.300;2023-03-16T03:12:22;2.78;;;1.17;;
30593;SDS011;33199;47.590;8.300;2023-03-16T03:14:47;1.50;;;1.13;;
30593;SDS011;33199;47.590;8.300;2023-03-16T03:17:13;1.17;;;1.08;;
30593;SDS011;33199;47.590;8.300;2023-03-16T03:19:38;1.55;;;1.20;;
30593;SDS011;33199;47.590;8.300;2023-03-16T03:22:04;1.50;;;1.40;;
30593;SDS011;33199;47.590;8.300;2023-03-16T03:24:33;1.48;;;1.35;;
30593;SDS011;33199;47.590;8.300;2023-03-16T03:26:59;1.20;;;1.10;;
30593;SDS011;33199;47.590;8.300;2023-03-16T03:29:25;3.03;;;1.35;;
30593;SDS011;33199;47.590;8.300;2023-03-16T03:31:59;1.42;;;1.08;;
30593;SDS011;33199;47.590;8.300;2023-03-16T03:34:26;1.45;;;1.35;;
30593;SDS011;33199;47.590;8.300;2023-03-16T03:36:52;2.03;;;1.60;;
30593;SDS011;33199;47.590;8.300;2023-03-16T03:39:18;1.20;;;1.10;;
30593;SDS011;33199;47.590;8.300;2023-03-16T03:41:43;2.05;;;1.40;;
30593;SDS011;33199;47.590;8.300;2023-03-16T03:44:09;1.50;;;1.40;;
30593;SDS011;33199;47.590;8.300;2023-03-16T03:46:34;1.20;;;1.10;;
30593;SDS011;33199;47.590;8.300;2023-03-16T03:49:00;1.58;;;1.48;;
30593;SDS011;33199;47.590;8.300;2023-03-16T03:51:29;1.88;;;1.25;;
30593;SDS011;33199;47.590;8.300;2023-03-16T03:53:55;1.48;;;1.20;;
30593;SDS011;33199;47.590;8.300;2023-03-16T03:56:21;1.00;;;1.00;;
30593;SDS011;33199;47.590;8.300;2023-03-16T03:58:47;1.90;;;1.58;;
30593;SDS011;33199;47.590;8.300;2023-03-16T04:01:13;4.00;;;1.10;;
30593;SDS011;33199;47.590;8.300;2023-03-16T04:03:39;1.63;;;1.30;;
30593;SDS011;33199;47.590;8.300;2023-03-16T04:06:05;1.13;;;1.10;;
30593;SDS011;33199;47.590;8.300;2023-03-16T04:08:32;1.52;;;1.38;;
30593;SDS011;33199;47.590;8.300;2023-03-16T04:10:58;2.08;;;1.33;;
30593;SDS011;33199;47.590;8.300;2023-03-16T04:13:25;1.73;;;1.20;;
30593;SDS011;33199;47.590;8.300;2023-03-16T04:15:57;1.30;;;1.17;;
30593;SDS011;33199;47.590;8.300;2023-03-16T04:18:24;1.50;;;1.40;;
30593;SDS011;33199;47.590;8.300;2023-03-16T04:20:50;1.75;;;1.40;;
30593;SDS011;33199;47.590;8.300;2023-03-16T04:23:17;1.10;;;1.00;;
30593;SDS011;33199;47.590;8.300;2023-03-16T04:25:43;1.52;;;1.35;;
30593;SDS011;33199;47.590;8.300;2023-03-16T04:28:09;1.60;;;1.20;;
30593;SDS011;33199;47.590;8.300;2023-03-16T04:30:35;1.48;;;1.30;;
30593;SDS011;33199;47.590;8.300;2023-03-16T04:33:00;1.30;;;1.20;;
30593;SDS011;33199;47.590;8.300;2023-03-16T04:35:26;1.50;;;1.20;;
30593;SDS011;33199;47.590;8.300;2023-03-16T04:37:52;1.88;;;1.20;;
30593;SDS011;33199;47.590;8.300;2023-03-16T04:40:17;2.25;;;1.15;;
30593;SDS011;33199;47.590;8.300;2023-03-16T04:42:44;1.13;;;0.82;;
30593;SDS011;33199;47.590;8.300;2023-03-16T04:45:11;1.40;;;1.30;;
30593;SDS011;33199;47.590;8.300;2023-03-16T04:47:38;1.52;;;1.33;;
30593;SDS011;33199;47.590;8.300;2023-03-16T04:50:04;1.30;;;1.20;;
30593;SDS011;33199;47.590;8.300;2023-03-16T04:52:30;1.67;;;1.48;;
30593;SDS011;33199;47.590;8.300;2023-03-16T04:54:56;1.45;;;1.35;;
30593;SDS011;33199;47.590;8.300;2023-03-16T04:57:22;1.95;;;1.23;;
30593;SDS011;33199;47.590;8.300;2023-03-16T04:59:48;1.73;;;1.40;;
30593;SDS011;33199;47.590;8.300;2023-03-16T05:02:14;1.40;;;1.20;;
30593;SDS011;33199;47.590;8.300;2023-03-16T05:04:40;2.47;;;1.23;;
30593;SDS011;33199;47.590;8.300;2023-03-16T05:07:06;1.63;;;1.52;;
30593;SDS011;33199;47.590;8.300;2023-03-16T05:09:32;1.98;;;1.35;;
30593;SDS011;33199;47.590;8.300;2023-03-16T05:11:57;2.15;;;1.67;;
30593;SDS011;33199;47.590;8.300;2023-03-16T05:14:23;1.38;;;1.27;;
30593;SDS011;33199;47.590;8.300;2023-03-16T05:16:48;1.90;;;1.70;;
30593;SDS011;33199;47.590;8.300;2023-03-16T05:19:16;1.63;;;1.13;;
30593;SDS011;33199;47.590;8.300;2023-03-16T05:21:42;1.55;;;1.45;;
30593;SDS011;33199;47.590;8.300;2023-03-16T05:24:09;2.45;;;1.30;;
30593;SDS011;33199;47.590;8.300;2023-03-16T05:26:36;1.30;;;1.30;;
30593;SDS011;33199;47.590;8.300;2023-03-16T05:29:02;1.33;;;1.23;;
30593;SDS011;33199;47.590;8.300;2023-03-16T05:31:28;1.40;;;1.30;;
30593;SDS011;33199;47.590;8.300;2023-03-16T05:36:22;2.60;;;1.95;;
30593;SDS011;33199;47.590;8.300;2023-03-16T05:38:48;3.65;;;1.92;;
30593;SDS011;33199;47.590;8.300;2023-03-16T05:41:15;2.15;;;1.92;;
30593;SDS011;33199;47.590;8.300;2023-03-16T05:43:42;2.88;;;1.70;;
30593;SDS011;33199;47.590;8.300;2023-03-16T05:46:08;4.80;;;1.50;;
30593;SDS011;33199;47.590;8.300;2023-03-16T05:48:34;4.97;;;1.70;;
30593;SDS011;33199;47.590;8.300;2023-03-16T05:51:00;2.05;;;1.95;;
30593;SDS011;33199;47.590;8.300;2023-03-16T05:53:29;3.03;;;2.08;;
30593;SDS011;33199;47.590;8.300;2023-03-16T05:55:59;1.98;;;1.80;;
30593;SDS011;33199;47.590;8.300;2023-03-16T05:58:25;2.05;;;1.70;;
30593;SDS011;33199;47.590;8.300;2023-03-16T06:00:51;4.85;;;1.70;;
30593;SDS011;33199;47.590;8.300;2023-03-16T06:03:19;3.67;;;2.13;;
30593;SDS011;33199;47.590;8.300;2023-03-16T06:05:45;4.90;;;1.85;;
30593;SDS011;33199;47.590;8.300;2023-03-16T06:08:11;1.60;;;1.48;;
30593;SDS011;33199;47.590;8.300;2023-03-16T06:10:37;2.92;;;1.60;;
30593;SDS011;33199;47.590;8.300;2023-03-16T06:13:02;3.50;;;1.63;;
30593;SDS011;33199;47.590;8.300;2023-03-16T06:15:28;1.77;;;1.42;;
30593;SDS011;33199;47.590;8.300;2023-03-16T06:17:54;3.42;;;1.67;;
30593;SDS011;33199;47.590;8.300;2023-03-16T06:20:20;2.47;;;1.48;;
30593;SDS011;33199;47.590;8.300;2023-03-16T06:22:45;2.35;;;2.05;;
30593;SDS011;33199;47.590;8.300;2023-03-16T06:25:11;2.90;;;2.33;;
30593;SDS011;33199;47.590;8.300;2023-03-16T06:27:38;3.47;;;2.63;;
30593;SDS011;33199;47.590;8.300;2023-03-16T06:30:28;3.03;;;2.58;;
30593;SDS011;33199;47.590;8.300;2023-03-16T06:32:54;4.80;;;2.97;;
30593;SDS011;33199;47.590;8.300;2023-03-16T06:35:19;3.60;;;2.65;;
30593;SDS011;33199;47.590;8.300;2023-03-16T06:37:45;3.58;;;2.90;;
30593;SDS011;33199;47.590;8.300;2023-03-16T06:40:11;3.00;;;2.53;;
30593;SDS011;33199;47.590;8.300;2023-03-16T06:42:37;6.82;;;2.80;;
30593;SDS011;33199;47.590;8.300;2023-03-16T06:45:03;4.22;;;3.05;;
30593;SDS011;33199;47.590;8.300;2023-03-16T06:47:29;2.80;;;2.42;;
30593;SDS011;33199;47.590;8.300;2023-03-16T06:49:55;2.88;;;2.53;;
30593;SDS011;33199;47.590;8.300;2023-03-16T06:52:21;2.53;;;2.28;;
30593;SDS011;33199;47.590;8.300;2023-03-16T06:54:47;3.78;;;2.70;;
30593;SDS011;33199;47.590;8.300;2023-03-16T06:57:12;2.80;;;2.60;;
30593;SDS011;33199;47.590;8.300;2023-03-16T06:59:38;5.47;;;2.40;;
30593;SDS011;33199;47.590;8.300;2023-03-16T07:02:04;2.90;;;2.47;;
30593;SDS011;33199;47.590;8.300;2023-03-16T07:04:31;2.60;;;2.28;;
30593;SDS011;33199;47.590;8.300;2023-03-16T07:06:58;6.40;;;2.33;;
30593;SDS011;33199;47.590;8.300;2023-03-16T07:09:23;2.55;;;2.35;;
30593;SDS011;33199;47.590;8.300;2023-03-16T07:11:49;5.50;;;2.28;;
30593;SDS011;33199;47.590;8.300;2023-03-16T07:14:16;2.38;;;2.17;;
30593;SDS011;33199;47.590;8.300;2023-03-16T07:16:43;2.60;;;2.40;;
30593;SDS011;33199;47.590;8.300;2023-03-16T07:19:09;2.85;;;2.65;;
30593;SDS011;33199;47.590;8.300;2023-03-16T07:21:35;2.35;;;2.20;;
30593;SDS011;33199;47.590;8.300;2023-03-16T07:24:04;8.13;;;2.92;;
30593;SDS011;33199;47.590;8.300;2023-03-16T07:26:31;3.30;;;2.35;;
30593;SDS011;33199;47.590;8.300;2023-03-16T07:28:57;5.47;;;2.45;;
30593;SDS011;33199;47.590;8.300;2023-03-16T07:31:23;2.58;;;2.38;;
30593;SDS011;33199;47.590;8.300;2023-03-16T07:33:49;2.20;;;2.00;;
30593;SDS011;33199;47.590;8.300;2023-03-16T07:36:14;3.08;;;2.30;;
30593;SDS011;33199;47.590;8.300;2023-03-16T07:38:40;2.83;;;2.25;;
30593;SDS011;33199;47.590;8.300;2023-03-16T07:41:06;2.50;;;2.28;;
30593;SDS011;33199;47.590;8.300;2023-03-16T07:43:32;2.67;;;2.47;;
30593;SDS011;33199;47.590;8.300;2023-03-16T07:45:58;2.50;;;2.30;;
30593;SDS011;33199;47.590;8.300;2023-03-16T07:48:25;3.55;;;2.45;;
30593;SDS011;33199;47.590;8.300;2023-03-16T07:50:51;2.50;;;2.30;;
30593;SDS011;33199;47.590;8.300;2023-03-16T07:53:16;3.00;;;2.55;;
30593;SDS011;33199;47.590;8.300;2023-03-16T07:55:42;2.30;;;2.10;;
30593;SDS011;33199;47.590;8.300;2023-03-16T07:58:08;2.95;;;2.40;;
30593;SDS011;33199;47.590;8.300;2023-03-16T08:00:35;3.45;;;2.50;;
30593;SDS011;33199;47.590;8.300;2023-03-16T08:03:01;4.10;;;1.88;;
30593;SDS011;33199;47.590;8.300;2023-03-16T08:05:27;3.25;;;2.30;;
30593;SDS011;33199;47.590;8.300;2023-03-16T08:07:53;4.32;;;2.50;;
30593;SDS011;33199;47.590;8.300;2023-03-16T08:10:22;2.53;;;2.10;;
30593;SDS011;33199;47.590;8.300;2023-03-16T08:12:49;4.35;;;2.42;;
30593;SDS011;33199;47.590;8.300;2023-03-16T08:15:15;2.88;;;2.28;;
30593;SDS011;33199;47.590;8.300;2023-03-16T08:17:41;3.13;;;1.90;;
30593;SDS011;33199;47.590;8.300;2023-03-16T08:20:07;2.55;;;2.35;;
30593;SDS011;33199;47.590;8.300;2023-03-16T08:22:36;4.78;;;2.58;;
30593;SDS011;33199;47.590;8.300;2023-03-16T08:25:02;4.00;;;3.08;;
30593;SDS011;33199;47.590;8.300;2023-03-16T08:27:30;7.10;;;2.70;;
30593;SDS011;33199;47.590;8.300;2023-03-16T08:29:55;3.13;;;2.50;;
30593;SDS011;33199;47.590;8.300;2023-03-16T08:32:21;5.78;;;2.45;;
30593;SDS011;33199;47.590;8.300;2023-03-16T08:34:47;3.78;;;2.38;;
30593;SDS011;33199;47.590;8.300;2023-03-16T08:37:14;4.07;;;2.80;;
30593;SDS011;33199;47.590;8.300;2023-03-16T08:39:40;7.93;;;2.28;;
30593;SDS011;33199;47.590;8.300;2023-03-16T08:42:07;5.20;;;2.50;;
30593;SDS011;33199;47.590;8.300;2023-03-16T08:44:35;7.22;;;2.83;;
30593;SDS011;33199;47.590;8.300;2023-03-16T08:47:02;3.13;;;2.17;;
30593;SDS011;33199;47.590;8.300;2023-03-16T08:49:29;3.20;;;2.25;;
30593;SDS011;33199;47.590;8.300;2023-03-16T08:51:54;3.72;;;2.22;;
30593;SDS011;33199;47.590;8.300;2023-03-16T08:54:21;4.00;;;2.03;;
30593;SDS011;33199;47.590;8.300;2023-03-16T08:56:46;2.80;;;1.67;;
30593;SDS011;33199;47.590;8.300;2023-03-16T08:59:12;1.90;;;1.48;;
30593;SDS011;33199;47.590;8.300;2023-03-16T09:01:38;3.28;;;1.65;;
30593;SDS011;33199;47.590;8.300;2023-03-16T09:04:04;3.55;;;1.48;;
30593;SDS011;33199;47.590;8.300;2023-03-16T09:06:29;3.58;;;1.95;;
30593;SDS011;33199;47.590;8.300;2023-03-16T09:08:56;2.67;;;1.77;;
30593;SDS011;33199;47.590;8.300;2023-03-16T09:11:21;2.17;;;1.85;;
30593;SDS011;33199;47.590;8.300;2023-03-16T09:13:47;2.78;;;1.63;;
30593;SDS011;33199;47.590;8.300;2023-03-16T09:16:14;3.83;;;1.85;;
30593;SDS011;33199;47.590;8.300;2023-03-16T09:18:40;4.75;;;1.48;;
30593;SDS011;33199;47.590;8.300;2023-03-16T09:21:07;2.75;;;1.70;;
30593;SDS011;33199;47.590;8.300;2023-03-16T09:23:34;4.60;;;2.00;;
30593;SDS011;33199;47.590;8.300;2023-03-16T09:26:02;5.32;;;1.67;;
30593;SDS011;33199;47.590;8.300;2023-03-16T09:28:31;6.57;;;1.58;;
30593;SDS011;33199;47.590;8.300;2023-03-16T09:30:59;3.25;;;1.77;;
30593;SDS011;33199;47.590;8.300;2023-03-16T09:33:27;3.90;;;2.47;;
30593;SDS011;33199;47.590;8.300;2023-03-16T09:35:53;3.47;;;1.60;;
30593;SDS011;33199;47.590;8.300;2023-03-16T09:38:21;2.83;;;1.40;;
30593;SDS011;33199;47.590;8.300;2023-03-16T09:40:54;2.88;;;1.60;;
30593;SDS011;33199;47.590;8.300;2023-03-16T09:43:38;5.30;;;1.55;;
30593;SDS011;33199;47.590;8.300;2023-03-16T09:46:20;1.83;;;1.67;;
30593;SDS011;33199;47.590;8.300;2023-03-16T09:48:48;3.28;;;1.50;;
30593;SDS011;33199;47.590;8.300;2023-03-16T09:54:02;1.63;;;1.13;;
30593;SDS011;33199;47.590;8.300;2023-03-16T09:56:39;2.08;;;1.23;;
30593;SDS011;33199;47.590;8.300;2023-03-16T09:59:11;1.23;;;1.13;;
30593;SDS011;33199;47.590;8.300;2023-03-16T10:10:54;1.25;;;1.15;;
30593;SDS011;33199;47.590;8.300;2023-03-16T10:13:34;2.08;;;1.42;;
30593;SDS011;33199;47.590;8.300;2023-03-16T10:16:21;1.50;;;1.27;;
30593;SDS011;33199;47.590;8.300;2023-03-16T10:18:49;2.58;;;1.30;;
30593;SDS011;33199;47.590;8.300;2023-03-16T10:21:22;2.75;;;1.38;;
30593;SDS011;33199;47.590;8.300;2023-03-16T10:23:48;1.38;;;1.15;;
30593;SDS011;33199;47.590;8.300;2023-03-16T10:26:20;1.35;;;1.02;;
30593;SDS011;33199;47.590;8.300;2023-03-16T10:28:50;1.52;;;1.40;;
30593;SDS011;33199;47.590;8.300;2023-03-16T10:31:18;4.05;;;1.50;;
30593;SDS011;33199;47.590;8.300;2023-03-16T10:33:46;2.63;;;1.25;;
30593;SDS011;33199;47.590;8.300;2023-03-16T10:36:28;1.25;;;1.15;;
30593;SDS011;33199;47.590;8.300;2023-03-16T10:39:11;1.38;;;1.30;;
30593;SDS011;33199;47.590;8.300;2023-03-16T10:41:39;1.42;;;1.08;;
30593;SDS011;33199;47.590;8.300;2023-03-16T10:44:15;1.20;;;1.10;;
30593;SDS011;33199;47.590;8.300;2023-03-16T10:46:58;1.95;;;1.30;;
30593;SDS011;33199;47.590;8.300;2023-03-16T10:51:52;4.25;;;1.77;;
30593;SDS011;33199;47.590;8.300;2023-03-16T10:54:40;2.25;;;1.00;;
30593;SDS011;33199;47.590;8.300;2023-03-16T10:57:25;2.65;;;1.35;;
30593;SDS011;33199;47.590;8.300;2023-03-16T11:02:37;1.25;;;1.15;;
30593;SDS011;33199;47.590;8.300;2023-03-16T11:05:13;1.85;;;1.13;;
30593;SDS011;33199;47.590;8.300;2023-03-16T11:10:30;0.98;;;0.90;;
30593;SDS011;33199;47.590;8.300;2023-03-16T11:13:11;1.20;;;1.10;;
30593;SDS011;33199;47.590;8.300;2023-03-16T11:15:44;2.95;;;0.93;;
30593;SDS011;33199;47.590;8.300;2023-03-16T11:20:54;2.70;;;1.00;;
30593;SDS011;33199;47.590;8.300;2023-03-16T11:23:23;1.17;;;0.90;;
30593;SDS011;33199;47.590;8.300;2023-03-16T11:25:55;1.58;;;1.00;;
30593;SDS011;33199;47.590;8.300;2023-03-16T11:28:36;1.42;;;1.10;;
30593;SDS011;33199;47.590;8.300;2023-03-16T11:33:34;1.73;;;1.00;;
30593;SDS011;33199;47.590;8.300;2023-03-16T11:36:04;1.05;;;1.02;;
30593;SDS011;33199;47.590;8.300;2023-03-16T11:44:43;1.20;;;1.10;;
30593;SDS011;33199;47.590;8.300;2023-03-16T11:50:24;1.08;;;0.80;;
30593;SDS011;33199;47.590;8.300;2023-03-16T11:58:33;1.10;;;1.00;;
30593;SDS011;33199;47.590;8.300;2023-03-16T12:07:12;1.20;;;0.85;;
30593;SDS011;33199;47.590;8.300;2023-03-16T12:15:33;2.08;;;1.00;;
30593;SDS011;33199;47.590;8.300;2023-03-16T12:18:07;0.90;;;0.90;;
30593;SDS011;33199;47.590;8.300;2023-03-16T12:23:37;1.92;;;1.02;;
30593;SDS011;33199;47.590;8.300;2023-03-16T12:26:14;0.90;;;0.90;;
30593;SDS011;33199;47.590;8.300;2023-03-16T12:28:41;0.80;;;0.80;;
30593;SDS011;33199;47.590;8.300;2023-03-16T12:31:15;0.93;;;0.90;;
30593;SDS011;33199;47.590;8.300;2023-03-16T12:34:01;2.25;;;0.90;;
30593;SDS011;33199;47.590;8.300;2023-03-16T12:39:34;4.22;;;1.00;;
30593;SDS011;33199;47.590;8.300;2023-03-16T12:44:55;3.00;;;1.08;;
30593;SDS011;33199;47.590;8.300;2023-03-16T12:50:09;1.10;;;1.00;;
30593;SDS011;33199;47.590;8.300;2023-03-16T12:52:47;0.95;;;0.88;;
30593;SDS011;33199;47.590;8.300;2023-03-16T12:55:15;0.80;;;0.80;;
30593;SDS011;33199;47.590;8.300;2023-03-16T12:58:00;3.97;;;1.00;;
30593;SDS011;33199;47.590;8.300;2023-03-16T13:00:34;0.80;;;0.80;;
30593;SDS011;33199;47.590;8.300;2023-03-16T13:03:01;1.15;;;0.80;;
30593;SDS011;33199;47.590;8.300;2023-03-16T13:05:35;1.90;;;1.00;;
30593;SDS011;33199;47.590;8.300;2023-03-16T13:08:12;1.17;;;0.88;;
30593;SDS011;33199;47.590;8.300;2023-03-16T13:10:40;1.85;;;0.98;;
30593;SDS011;33199;47.590;8.300;2023-03-16T13:13:15;1.13;;;1.02;;
30593;SDS011;33199;47.590;8.300;2023-03-16T13:15:42;0.80;;;0.80;;
30593;SDS011;33199;47.590;8.300;2023-03-16T13:23:21;1.50;;;0.80;;
30593;SDS011;33199;47.590;8.300;2023-03-16T13:28:41;0.93;;;0.90;;
30593;SDS011;33199;47.590;8.300;2023-03-16T13:33:59;1.10;;;1.05;;
30593;SDS011;33199;47.590;8.300;2023-03-16T13:36:27;0.82;;;0.75;;
30593;SDS011;33199;47.590;8.300;2023-03-16T13:44:45;0.90;;;0.90;;
30593;SDS011;33199;47.590;8.300;2023-03-16T13:47:15;1.00;;;0.90;;
30593;SDS011;33199;47.590;8.300;2023-03-16T13:49:43;1.00;;;1.00;;
30593;SDS011;33199;47.590;8.300;2023-03-16T13:52:16;0.93;;;0.90;;
30593;SDS011;33199;47.590;8.300;2023-03-16T13:54:48;0.90;;;0.90;;
30593;SDS011;33199;47.590;8.300;2023-03-16T13:57:15;0.93;;;0.90;;
30593;SDS011;33199;47.590;8.300;2023-03-16T13:59:44;0.82;;;0.82;;
30593;SDS011;33199;47.590;8.300;2023-03-16T14:02:15;0.80;;;0.80;;
30593;SDS011;33199;47.590;8.300;2023-03-16T14:04:42;4.70;;;0.82;;
30593;SDS011;33199;47.590;8.300;2023-03-16T14:07:14;1.00;;;0.90;;
30593;SDS011;33199;47.590;8.300;2023-03-16T14:09:44;1.33;;;0.90;;
30593;SDS011;33199;47.590;8.300;2023-03-16T14:12:14;0.95;;;0.95;;
30593;SDS011;33199;47.590;8.300;2023-03-16T14:14:41;0.90;;;0.80;;
30593;SDS011;33199;47.590;8.300;2023-03-16T14:17:12;1.52;;;0.80;;
30593;SDS011;33199;47.590;8.300;2023-03-16T14:19:42;1.17;;;1.08;;
30593;SDS011;33199;47.590;8.300;2023-03-16T14:22:21;1.00;;;1.00;;
30593;SDS011;33199;47.590;8.300;2023-03-16T14:24:56;1.48;;;1.20;;
30593;SDS011;33199;47.590;8.300;2023-03-16T14:27:30;1.08;;;1.00;;
30593;SDS011;33199;47.590;8.300;2023-03-16T14:30:19;1.08;;;0.85;;
30593;SDS011;33199;47.590;8.300;2023-03-16T14:33:01;1.00;;;0.70;;
30593;SDS011;33199;47.590;8.300;2023-03-16T14:35:38;0.70;;;0.70;;
30593;SDS011;33199;47.590;8.300;2023-03-16T14:40:54;0.93;;;0.80;;
30593;SDS011;33199;47.590;8.300;2023-03-16T14:43:31;3.78;;;1.30;;
30593;SDS011;33199;47.590;8.300;2023-03-16T14:46:00;1.58;;;0.98;;
30593;SDS011;33199;47.590;8.300;2023-03-16T14:48:29;1.02;;;0.93;;
30593;SDS011;33199;47.590;8.300;2023-03-16T14:50:57;1.10;;;1.00;;
30593;SDS011;33199;47.590;8.300;2023-03-16T14:53:25;0.68;;;0.68;;
30593;SDS011;33199;47.590;8.300;2023-03-16T14:55:52;1.05;;;0.80;;
30593;SDS011;33199;47.590;8.300;2023-03-16T14:58:18;2.95;;;0.90;;
30593;SDS011;33199;47.590;8.300;2023-03-16T15:00:44;2.38;;;0.80;;
30593;SDS011;33199;47.590;8.300;2023-03-16T15:03:11;1.00;;;0.65;;
30593;SDS011;33199;47.590;8.300;2023-03-16T15:05:41;0.88;;;0.88;;
30593;SDS011;33199;47.590;8.300;2023-03-16T15:08:21;0.80;;;0.80;;
30593;SDS011;33199;47.590;8.300;2023-03-16T15:10:51;1.38;;;0.80;;
30593;SDS011;33199;47.590;8.300;2023-03-16T15:13:19;0.70;;;0.70;;
30593;SDS011;33199;47.590;8.300;2023-03-16T15:16:02;1.10;;;1.00;;
30593;SDS011;33199;47.590;8.300;2023-03-16T15:18:29;1.00;;;0.90;;
30593;SDS011;33199;47.590;8.300;2023-03-16T15:20:56;0.75;;;0.75;;
30593;SDS011;33199;47.590;8.300;2023-03-16T15:23:22;0.80;;;0.80;;
30593;SDS011;33199;47.590;8.300;2023-03-16T15:25:48;1.17;;;1.05;;
30593;SDS011;33199;47.590;8.300;2023-03-16T15:28:23;1.23;;;0.77;;
30593;SDS011;33199;47.590;8.300;2023-03-16T15:30:51;0.93;;;0.93;;
30593;SDS011;33199;47.590;8.300;2023-03-16T15:33:21;0.95;;;0.63;;
30593;SDS011;33199;47.590;8.300;2023-03-16T15:35:47;0.80;;;0.80;;
30593;SDS011;33199;47.590;8.300;2023-03-16T15:38:19;0.80;;;0.77;;
30593;SDS011;33199;47.590;8.300;2023-03-16T15:40:47;1.00;;;0.90;;
30593;SDS011;33199;47.590;8.300;2023-03-16T15:43:16;3.20;;;0.93;;
30593;SDS011;33199;47.590;8.300;2023-03-16T15:45:43;0.82;;;0.82;;
30593;SDS011;33199;47.590;8.300;2023-03-16T15:48:10;0.80;;;0.80;;
30593;SDS011;33199;47.590;8.300;2023-03-16T15:50:37;1.05;;;0.93;;
30593;SDS011;33199;47.590;8.300;2023-03-16T15:53:06;0.80;;;0.80;;
30593;SDS011;33199;47.590;8.300;2023-03-16T15:58:03;0.70;;;0.70;;
30593;SDS011;33199;47.590;8.300;2023-03-16T16:00:31;2.28;;;0.70;;
30593;SDS011;33199;47.590;8.300;2023-03-16T16:02:59;1.88;;;0.70;;
30593;SDS011;33199;47.590;8.300;2023-03-16T16:05:26;0.80;;;0.80;;
30593;SDS011;33199;47.590;8.300;2023-03-16T16:07:52;0.70;;;0.70;;
30593;SDS011;33199;47.590;8.300;2023-03-16T16:10:19;0.45;;;0.45;;
30593;SDS011;33199;47.590;8.300;2023-03-16T16:12:45;0.70;;;0.70;;
30593;SDS011;33199;47.590;8.300;2023-03-16T16:15:25;0.85;;;0.80;;
30593;SDS011;33199;47.590;8.300;2023-03-16T16:17:58;2.80;;;0.90;;
30593;SDS011;33199;47.590;8.300;2023-03-16T16:20:27;0.60;;;0.60;;
30593;SDS011;33199;47.590;8.300;2023-03-16T16:22:55;0.90;;;0.90;;
30593;SDS011;33199;47.590;8.300;2023-03-16T16:25:27;0.80;;;0.80;;
30593;SDS011;33199;47.590;8.300;2023-03-16T16:27:59;0.80;;;0.80;;
30593;SDS011;33199;47.590;8.300;2023-03-16T16:30:26;0.90;;;0.80;;